Time;durP1;ratioP1;P1;durP2;ratioP2;P2;SDS_P1;SDS_P2;PMS_P1;PMS_P2;Temp;Humidity;BMP_temperature;BMP_pressure;BME280_temperature;BME280_humidity;BME280_pressure;Samples;Min_cycle;Max_cycle;Signal;HPM_P1;HPM_P2
2022/06/23 00:00:04;;;;;;;31.10;28.33;;;12.40;99.90;;;;;;5047954;28;20041;-72
2022/06/23 00:02:34;;;;;;;27.17;25.08;;;12.40;99.90;;;;;;5012556;28;20268;-73
2022/06/23 00:05:10;;;;;;;25.17;23.38;;;12.40;99.90;;;;;;5032655;28;20080;-72
2022/06/23 00:07:38;;;;;;;24.63;23.00;;;12.40;99.90;;;;;;5061273;28;20167;-72
2022/06/23 00:10:18;;;;;;;25.50;23.80;;;12.40;99.90;;;;;;5062161;28;20068;-72
2022/06/23 00:12:45;;;;;;;23.45;21.95;;;12.50;99.90;;;;;;5061644;28;20044;-72
2022/06/23 00:15:26;;;;;;;24.95;23.05;;;12.50;99.90;;;;;;5035728;28;20060;-72
2022/06/23 00:18:02;;;;;;;23.30;21.42;;;12.40;99.90;;;;;;5027482;28;20408;-72
2022/06/23 00:20:58;;;;;;;23.38;21.80;;;12.40;99.90;;;;;;5043816;28;20044;-73
2022/06/23 00:23:32;;;;;;;23.25;21.85;;;12.30;99.90;;;;;;5039051;28;20072;-72
2022/06/23 00:26:20;;;;;;;24.25;22.55;;;12.20;99.90;;;;;;5046056;28;20241;-72
2022/06/23 00:28:52;;;;;;;23.92;22.23;;;12.20;99.90;;;;;;5025117;28;20057;-73
2022/06/23 00:31:52;;;;;;;23.30;21.70;;;12.20;99.90;;;;;;5034942;28;20068;-72
2022/06/23 00:34:38;;;;;;;23.08;21.52;;;12.10;99.90;;;;;;5024620;28;20409;-73
2022/06/23 00:37:10;;;;;;;23.13;21.70;;;12.10;99.90;;;;;;5023848;28;20132;-73
2022/06/23 00:40:00;;;;;;;24.30;22.70;;;12.00;99.90;;;;;;5069900;22;20020;-74
2022/06/23 00:42:40;;;;;;;24.08;22.55;;;11.90;99.90;;;;;;5071322;28;20044;-72
2022/06/23 00:45:21;;;;;;;23.75;22.25;;;12.00;99.90;;;;;;5088830;28;20050;-74
2022/06/23 00:47:59;;;;;;;24.33;22.73;;;11.90;99.90;;;;;;5088629;28;20074;-73
2022/06/23 00:50:35;;;;;;;23.77;22.17;;;11.90;99.90;;;;;;5089869;28;20048;-74
2022/06/23 00:53:28;;;;;;;24.55;22.88;;;12.00;99.90;;;;;;5086771;28;20055;-74
2022/06/23 00:56:19;;;;;;;24.13;22.48;;;12.00;99.90;;;;;;5059270;28;20045;-75
2022/06/23 00:58:52;;;;;;;24.05;22.40;;;12.10;99.90;;;;;;5034163;28;20140;-75
2022/06/23 01:01:31;;;;;;;24.90;23.20;;;12.10;99.90;;;;;;5057768;28;20110;-75
2022/06/23 01:04:08;;;;;;;24.42;22.88;;;12.10;99.90;;;;;;5066544;28;20060;-75
2022/06/23 01:06:38;;;;;;;24.20;22.60;;;12.00;99.90;;;;;;5065889;28;20048;-75
2022/06/23 01:09:23;;;;;;;24.40;22.80;;;12.00;99.90;;;;;;5049985;28;20048;-75
2022/06/23 01:12:17;;;;;;;24.17;22.58;;;12.00;99.90;;;;;;5067123;28;20052;-72
2022/06/23 01:14:53;;;;;;;24.35;22.30;;;11.90;99.90;;;;;;5067394;28;20068;-74
2022/06/23 01:17:26;;;;;;;24.73;23.13;;;11.80;99.90;;;;;;5017838;28;20044;-76
2022/06/23 01:20:11;;;;;;;23.27;21.83;;;11.90;99.90;;;;;;5049539;28;20574;-73
2022/06/23 01:22:43;;;;;;;23.73;22.15;;;12.00;99.90;;;;;;5058113;28;20045;-75
2022/06/23 01:25:40;;;;;;;23.38;21.75;;;11.90;99.90;;;;;;5050026;28;20103;-74
2022/06/23 01:28:20;;;;;;;23.90;22.30;;;11.90;99.90;;;;;;5046716;28;20053;-73
2022/06/23 01:31:00;;;;;;;23.65;22.05;;;11.80;99.90;;;;;;5055286;28;20277;-75
2022/06/23 01:33:45;;;;;;;23.30;21.83;;;11.70;99.90;;;;;;5061772;28;20045;-75
2022/06/23 01:36:22;;;;;;;24.13;22.63;;;11.80;99.90;;;;;;5066738;28;20434;-76
2022/06/23 01:39:04;;;;;;;23.83;22.25;;;11.70;99.90;;;;;;5067071;28;20190;-75
2022/06/23 01:41:37;;;;;;;23.73;22.13;;;11.70;99.90;;;;;;5065302;28;20044;-75
2022/06/23 01:44:13;;;;;;;25.10;23.38;;;11.70;99.90;;;;;;5038992;28;20052;-75
2022/06/23 01:46:43;;;;;;;23.95;22.45;;;11.70;99.90;;;;;;5065724;28;20048;-75
2022/06/23 01:49:18;;;;;;;23.55;21.70;;;11.70;99.90;;;;;;5048385;28;20049;-75
2022/06/23 01:51:52;;;;;;;23.17;21.60;;;11.80;99.90;;;;;;5065897;28;20076;-75
2022/06/23 01:54:22;;;;;;;23.35;21.90;;;11.90;99.90;;;;;;5051960;28;20379;-75
2022/06/23 01:57:14;;;;;;;23.60;22.05;;;11.90;99.90;;;;;;5045947;28;20053;-75
2022/06/23 02:00:09;;;;;;;23.83;22.13;;;11.80;99.90;;;;;;5053982;28;20457;-75
2022/06/23 02:02:47;;;;;;;24.37;22.63;;;11.70;99.90;;;;;;5050227;28;20080;-75
2022/06/23 02:05:21;;;;;;;24.50;22.92;;;11.70;99.90;;;;;;5047349;28;20048;-76
2022/06/23 02:08:07;;;;;;;24.10;22.52;;;11.70;99.90;;;;;;5048196;28;20052;-73
2022/06/23 02:10:47;;;;;;;23.10;21.38;;;11.90;99.90;;;;;;5047673;28;20344;-72
2022/06/23 02:13:25;;;;;;;23.23;21.77;;;11.90;99.90;;;;;;5062359;28;20582;-73
2022/06/23 02:16:10;;;;;;;24.05;22.40;;;11.80;99.90;;;;;;5044293;28;20036;-73
2022/06/23 02:19:03;;;;;;;24.77;22.80;;;11.70;99.90;;;;;;5066281;28;20522;-74
2022/06/23 02:21:53;;;;;;;24.02;22.13;;;11.60;99.90;;;;;;5046857;28;20581;-73
2022/06/23 02:24:26;;;;;;;23.38;21.88;;;11.60;99.90;;;;;;5054188;28;20045;-74
2022/06/23 02:27:07;;;;;;;22.80;21.10;;;11.70;99.90;;;;;;5027398;28;20091;-74
2022/06/23 02:30:01;;;;;;;22.20;20.80;;;11.40;99.90;;;;;;5033436;28;20262;-75
2022/06/23 02:32:59;;;;;;;21.55;20.10;;;11.20;99.90;;;;;;5058570;28;20041;-75
2022/06/23 02:35:49;;;;;;;23.42;21.83;;;11.10;99.90;;;;;;5064888;28;20137;-75
2022/06/23 02:38:23;;;;;;;22.27;20.77;;;11.10;99.90;;;;;;5065399;28;20114;-76
2022/06/23 02:41:22;;;;;;;23.10;21.55;;;11.40;99.90;;;;;;5047253;28;20092;-73
2022/06/23 02:43:59;;;;;;;23.02;21.17;;;11.40;99.90;;;;;;5048097;28;20064;-72
2022/06/23 02:46:28;;;;;;;23.00;21.60;;;11.30;99.90;;;;;;5070140;28;20064;-73
2022/06/23 02:49:27;;;;;;;22.95;21.20;;;11.30;99.90;;;;;;5066387;28;20049;-73
2022/06/23 02:52:19;;;;;;;22.27;20.88;;;11.30;99.90;;;;;;5064817;28;20596;-74
2022/06/23 02:55:20;;;;;;;22.85;21.25;;;11.50;99.90;;;;;;5049251;28;20033;-74
2022/06/23 02:58:23;;;;;;;23.00;21.13;;;11.40;99.90;;;;;;5065488;28;20548;-73
2022/06/23 03:01:12;;;;;;;24.40;22.15;;;11.50;99.90;;;;;;5037850;28;20045;-75
2022/06/23 03:03:49;;;;;;;23.73;21.70;;;11.60;99.90;;;;;;5046463;28;20102;-75
2022/06/23 03:06:26;;;;;;;23.15;21.45;;;11.50;99.90;;;;;;5047705;28;20517;-75
2022/06/23 03:09:28;;;;;;;23.40;21.83;;;11.50;99.90;;;;;;5047236;28;20192;-75
2022/06/23 03:12:11;;;;;;;24.20;22.40;;;11.40;99.90;;;;;;5064328;28;20114;-74
2022/06/23 03:15:05;;;;;;;24.27;22.58;;;11.40;99.90;;;;;;5038197;28;20114;-73
2022/06/23 03:17:42;;;;;;;25.10;23.00;;;11.60;99.90;;;;;;5044451;28;20163;-74
2022/06/23 03:20:42;;;;;;;23.58;21.95;;;11.70;99.90;;;;;;5026367;28;20072;-73
2022/06/23 03:23:23;;;;;;;23.98;22.15;;;11.70;99.90;;;;;;5024159;28;20072;-74
2022/06/23 03:26:00;;;;;;;23.45;21.95;;;11.70;99.90;;;;;;5033825;28;20207;-74
2022/06/23 03:28:33;;;;;;;25.10;23.42;;;11.50;99.90;;;;;;5065105;28;20044;-74
2022/06/23 03:31:10;;;;;;;25.38;23.52;;;11.50;99.90;;;;;;5053969;28;20048;-74
2022/06/23 03:34:17;;;;;;;26.50;24.50;;;11.40;99.90;;;;;;5027399;28;20051;-74
2022/06/23 03:36:47;;;;;;;24.60;22.92;;;11.40;99.90;;;;;;5006296;28;20044;-74
2022/06/23 03:42:36;;;;;;;23.77;22.27;;;11.40;99.90;;;;;;5063830;28;20044;-74
2022/06/23 03:45:24;;;;;;;24.42;22.52;;;11.30;99.90;;;;;;5020309;28;20052;-75
2022/06/23 03:48:09;;;;;;;24.27;22.48;;;11.40;99.90;;;;;;5046825;28;20094;-75
2022/06/23 03:50:50;;;;;;;24.43;22.73;;;11.40;99.90;;;;;;5063533;28;20036;-75
2022/06/23 03:53:37;;;;;;;24.50;22.65;;;11.40;99.90;;;;;;5058831;28;20263;-75
2022/06/23 03:56:17;;;;;;;23.83;21.98;;;11.60;99.90;;;;;;5044031;28;20113;-75
2022/06/23 03:59:12;;;;;;;22.90;21.35;;;11.60;99.90;;;;;;5063610;28;20044;-75
2022/06/23 04:01:47;;;;;;;23.52;21.70;;;11.70;99.90;;;;;;5052064;28;20056;-75
2022/06/23 04:04:21;;;;;;;24.13;22.35;;;11.60;99.90;;;;;;5048374;28;20109;-73
2022/06/23 04:06:50;;;;;;;23.42;21.92;;;11.50;99.90;;;;;;5063227;28;20480;-73
2022/06/23 04:09:27;;;;;;;24.10;22.40;;;11.60;99.90;;;;;;5064548;28;20148;-76
2022/06/23 04:12:04;;;;;;;24.77;22.88;;;11.60;99.90;;;;;;5062893;28;20053;-76
2022/06/23 04:14:36;;;;;;;23.67;22.15;;;11.70;99.90;;;;;;5036624;28;20105;-73
2022/06/23 04:17:25;;;;;;;25.33;23.42;;;12.10;99.90;;;;;;5063869;28;20036;-74
2022/06/23 04:19:56;;;;;;;23.80;22.40;;;12.40;99.90;;;;;;5045212;28;20502;-73
2022/06/23 04:22:37;;;;;;;25.50;23.63;;;12.60;99.90;;;;;;5043619;28;20060;-73
2022/06/23 04:25:07;;;;;;;25.35;23.50;;;13.00;99.90;;;;;;5066225;28;20422;-73
2022/06/23 04:27:44;;;;;;;25.55;23.77;;;13.20;99.90;;;;;;5063386;28;20510;-76
2022/06/23 04:30:24;;;;;;;24.50;22.80;;;13.20;99.90;;;;;;5042271;28;20080;-76
2022/06/23 04:32:54;;;;;;;25.48;23.58;;;13.30;99.90;;;;;;5042648;28;20534;-74
2022/06/23 04:35:27;;;;;;;26.88;24.85;;;13.80;99.90;;;;;;5043644;28;20048;-74
2022/06/23 04:38:13;;;;;;;26.13;24.25;;;14.00;99.90;;;;;;5044124;28;20053;-74
2022/06/23 04:40:43;;;;;;;25.83;24.08;;;14.60;99.90;;;;;;5059820;28;20572;-74
2022/06/23 04:43:28;;;;;;;24.88;23.27;;;15.20;99.90;;;;;;5059617;28;20076;-73
2022/06/23 04:46:06;;;;;;;24.90;23.30;;;15.50;99.90;;;;;;5042034;28;20088;-73
2022/06/23 04:48:38;;;;;;;24.63;22.92;;;15.60;99.90;;;;;;5046325;28;20052;-74
2022/06/23 04:51:24;;;;;;;25.02;23.13;;;15.90;99.90;;;;;;5063378;28;20109;-74
2022/06/23 04:54:00;;;;;;;;;;;16.50;99.90;;;;;;5054655;28;20604;-73
2022/06/23 04:56:35;;;;;;;24.48;22.75;;;17.10;99.90;;;;;;5028782;28;19925;-72
2022/06/23 04:59:16;;;;;;;23.77;22.38;;;17.50;99.90;;;;;;5043313;28;20494;-75
2022/06/23 05:01:47;;;;;;;24.15;22.55;;;17.70;99.90;;;;;;5040387;28;20044;-75
2022/06/23 05:04:23;;;;;;;24.08;22.55;;;18.20;99.90;;;;;;5036618;28;20102;-74
2022/06/23 05:06:54;;;;;;;24.75;23.05;;;18.70;99.90;;;;;;5048360;28;20055;-75
2022/06/23 05:09:23;;;;;;;23.77;22.10;;;18.70;99.90;;;;;;5043052;28;20057;-75
2022/06/23 05:11:55;;;;;;;24.58;23.02;;;18.60;99.90;;;;;;5041164;28;20526;-74
2022/06/23 05:14:31;;;;;;;23.85;22.33;;;18.90;99.90;;;;;;5050141;28;20158;-75
2022/06/23 05:17:10;;;;;;;23.83;22.15;;;19.40;99.90;;;;;;5060608;28;20052;-74
2022/06/23 05:19:39;;;;;;;24.42;22.60;;;19.40;99.90;;;;;;5062652;28;20552;-74
2022/06/23 05:22:17;;;;;;;22.98;21.40;;;19.70;99.90;;;;;;5061856;28;20067;-75
2022/06/23 05:24:46;;;;;;;23.23;21.73;;;20.20;99.90;;;;;;5050769;28;20130;-75
2022/06/23 05:27:19;;;;;;;23.00;21.42;;;20.70;99.90;;;;;;5036924;28;20041;-75
2022/06/23 05:30:30;;;;;;;22.73;21.23;;;20.90;99.90;;;;;;5064454;28;20144;-75
2022/06/23 05:33:12;;;;;;;22.48;20.98;;;21.00;99.90;;;;;;4969903;28;20058;-75
2022/06/23 05:35:44;;;;;;;22.48;20.92;;;21.20;99.90;;;;;;5037813;28;20595;-74
2022/06/23 05:38:36;;;;;;;22.13;20.73;;;21.10;99.90;;;;;;5039840;28;20049;-74
2022/06/23 05:41:32;;;;;;;22.65;21.15;;;21.00;99.90;;;;;;5064172;28;20514;-75
2022/06/23 05:43:58;;;;;;;22.58;21.17;;;21.30;99.90;;;;;;5049765;28;20098;-74
2022/06/23 05:46:28;;;;;;;22.75;21.25;;;21.50;99.90;;;;;;5023691;28;20113;-74
2022/06/23 05:49:06;;;;;;;22.88;21.30;;;21.90;99.90;;;;;;5065115;28;20064;-75
2022/06/23 05:51:52;;;;;;;23.42;21.67;;;22.60;99.90;;;;;;5064168;28;20055;-74
2022/06/23 05:54:24;;;;;;;23.65;22.13;;;22.70;99.90;;;;;;5035228;28;20102;-74
2022/06/23 05:57:06;;;;;;;23.80;22.10;;;22.80;99.90;;;;;;5064153;28;20048;-74
2022/06/23 05:59:56;;;;;;;23.58;22.13;;;22.90;99.90;;;;;;5063528;28;20638;-74
2022/06/23 06:02:39;;;;;;;23.92;22.15;;;23.30;99.90;;;;;;5037950;28;20109;-74
2022/06/23 06:05:20;;;;;;;23.38;21.80;;;23.60;99.90;;;;;;5045488;28;20049;-75
2022/06/23 06:07:47;;;;;;;23.63;22.20;;;23.60;99.90;;;;;;5063441;28;20049;-74
2022/06/23 06:10:20;;;;;;;23.65;22.15;;;23.60;99.90;;;;;;5064189;28;20090;-74
2022/06/23 06:12:48;;;;;;;24.30;22.70;;;23.90;99.90;;;;;;5058955;28;20110;-74
2022/06/23 06:15:20;;;;;;;23.10;21.50;;;24.20;99.90;;;;;;5037326;28;20049;-74
2022/06/23 06:17:49;;;;;;;23.67;22.08;;;23.90;99.90;;;;;;5064679;28;20087;-73
2022/06/23 06:20:20;;;;;;;23.90;22.30;;;24.00;99.90;;;;;;5047312;28;20072;-75
2022/06/23 06:23:11;;;;;;;23.73;22.15;;;23.90;99.90;;;;;;5060285;28;20261;-74
2022/06/23 06:25:47;;;;;;;24.35;22.85;;;23.80;99.90;;;;;;5058979;28;20064;-74
2022/06/23 06:28:19;;;;;;;23.30;21.80;;;23.60;99.90;;;;;;5030445;28;20611;-74
2022/06/23 06:31:12;;;;;;;24.63;22.80;;;23.80;99.90;;;;;;5038718;28;20045;-74
2022/06/23 06:33:44;;;;;;;23.60;21.98;;;23.70;99.90;;;;;;5052199;28;20513;-75
2022/06/23 06:36:34;;;;;;;25.02;23.40;;;23.60;99.90;;;;;;5045779;28;20344;-74
2022/06/23 06:39:08;;;;;;;24.52;22.88;;;23.30;99.90;;;;;;5046695;28;20453;-75
2022/06/23 06:41:37;;;;;;;24.35;22.95;;;23.10;99.90;;;;;;5065369;22;20487;-71
2022/06/23 06:44:04;;;;;;;25.08;23.48;;;23.20;99.90;;;;;;5040254;28;20045;-72
2022/06/23 06:46:31;;;;;;;25.92;24.33;;;23.20;99.90;;;;;;5042410;28;20072;-72
2022/06/23 06:48:59;;;;;;;25.30;23.63;;;23.30;99.90;;;;;;5043393;28;20045;-72
2022/06/23 06:51:29;;;;;;;25.58;23.98;;;23.30;99.90;;;;;;5024452;28;20429;-72
2022/06/23 06:54:10;;;;;;;25.23;23.63;;;23.60;99.90;;;;;;5042651;28;20519;-77
2022/06/23 06:56:40;;;;;;;25.70;24.10;;;23.70;99.90;;;;;;5025797;28;20878;-75
2022/06/23 06:59:22;;;;;;;24.88;23.38;;;24.10;99.90;;;;;;5023921;28;20696;-75
2022/06/23 07:01:56;;;;;;;25.17;23.77;;;24.40;99.90;;;;;;5038310;28;20056;-75
2022/06/23 07:04:29;;;;;;;24.67;23.10;;;24.60;99.90;;;;;;5022216;28;20045;-75
2022/06/23 07:07:02;;;;;;;25.30;23.80;;;24.60;99.90;;;;;;5043139;28;20079;-76
2022/06/23 07:09:46;;;;;;;24.67;23.15;;;25.00;99.90;;;;;;5043589;28;20460;-76
2022/06/23 07:12:26;;;;;;;26.38;24.65;;;25.00;99.90;;;;;;5042974;28;20037;-76
2022/06/23 07:15:05;;;;;;;26.02;24.33;;;24.80;99.90;;;;;;5023064;28;20046;-77
2022/06/23 07:17:40;;;;;;;25.63;23.90;;;24.50;99.90;;;;;;5006190;28;20218;-76
2022/06/23 07:20:07;;;;;;;25.13;23.42;;;24.40;99.90;;;;;;5005089;28;20500;-76
2022/06/23 07:22:50;;;;;;;25.92;24.40;;;24.40;99.90;;;;;;5028630;28;20060;-77
2022/06/23 07:25:36;;;;;;;25.90;24.20;;;24.40;99.90;;;;;;5019503;28;20087;-75
2022/06/23 07:28:13;;;;;;;26.20;24.52;;;24.60;99.90;;;;;;5042856;28;20049;-77
2022/06/23 07:30:57;;;;;;;25.25;23.80;;;25.00;99.90;;;;;;5023761;28;20048;-75
2022/06/23 07:33:44;;;;;;;26.13;24.53;;;25.00;99.90;;;;;;5022724;28;20614;-76
2022/06/23 07:36:21;;;;;;;26.38;24.67;;;25.00;99.90;;;;;;5041824;28;20288;-76
2022/06/23 07:39:03;;;;;;;26.55;24.95;;;25.20;99.90;;;;;;5009911;28;20110;-76
2022/06/23 07:41:46;;;;;;;27.17;25.58;;;25.60;99.90;;;;;;5044896;28;20063;-76
2022/06/23 07:44:29;;;;;;;27.25;25.55;;;25.70;99.90;;;;;;5043903;28;20045;-77
2022/06/23 07:46:56;;;;;;;28.23;26.25;;;25.90;99.90;;;;;;5029570;28;20076;-76
2022/06/23 07:49:25;;;;;;;28.10;26.30;;;25.80;99.90;;;;;;5006339;28;20049;-76
2022/06/23 07:51:54;;;;;;;27.05;25.52;;;25.60;99.90;;;;;;5007304;28;20073;-76
2022/06/23 07:54:22;;;;;;;28.10;26.27;;;25.60;99.80;;;;;;5026208;28;20041;-76
2022/06/23 07:56:51;;;;;;;28.65;27.05;;;25.30;99.90;;;;;;5043170;28;20045;-76
2022/06/23 07:59:21;;;;;;;27.98;26.08;;;25.30;99.90;;;;;;5029027;28;20229;-76
2022/06/23 08:02:15;;;;;;;28.42;26.83;;;25.30;99.90;;;;;;5022171;28;20048;-76
2022/06/23 08:05:07;;;;;;;27.50;25.75;;;25.70;99.90;;;;;;4989756;28;20055;-77
2022/06/23 08:07:35;;;;;;;29.25;27.27;;;26.20;99.50;;;;;;5026167;28;20049;-76
2022/06/23 08:10:08;;;;;;;29.15;27.27;;;26.40;99.90;;;;;;5044715;28;20111;-76
2022/06/23 08:12:53;;;;;;;28.15;26.40;;;26.70;99.40;;;;;;5044420;28;20466;-76
2022/06/23 08:18:26;;;;;;;27.35;25.85;;;26.50;99.90;;;;;;5025910;28;20553;-76
2022/06/23 08:21:01;;;;;;;28.13;26.52;;;26.80;99.60;;;;;;5044471;28;20052;-76
2022/06/23 08:23:33;;;;;;;28.20;26.50;;;26.80;98.20;;;;;;5041672;28;20410;-76
2022/06/23 08:26:01;;;;;;;29.55;27.70;;;26.80;97.80;;;;;;5030219;28;20041;-76
2022/06/23 08:28:29;;;;;;;29.42;27.73;;;26.60;97.60;;;;;;5033597;28;20050;-76
2022/06/23 08:30:55;;;;;;;29.15;27.20;;;26.50;97.80;;;;;;5022763;28;20055;-77
2022/06/23 08:33:22;;;;;;;29.85;27.95;;;26.70;98.20;;;;;;5026254;28;20053;-77
2022/06/23 08:35:53;;;;;;;29.17;27.35;;;26.80;97.30;;;;;;5026476;28;20078;-76
2022/06/23 08:38:22;;;;;;;29.90;28.10;;;27.10;97.40;;;;;;4999408;28;20061;-76
2022/06/23 08:40:57;;;;;;;30.17;28.27;;;27.10;97.70;;;;;;5040684;28;20045;-76
2022/06/23 08:43:42;;;;;;;30.70;28.67;;;27.20;97.20;;;;;;5050165;28;20078;-76
2022/06/23 08:46:12;;;;;;;30.02;28.10;;;27.20;96.90;;;;;;5032802;28;20075;-76
2022/06/23 08:48:59;;;;;;;30.77;28.70;;;27.70;98.20;;;;;;5007095;28;20052;-77
2022/06/23 08:51:37;;;;;;;29.90;27.95;;;28.20;97.80;;;;;;5023764;28;20115;-77
2022/06/23 08:54:12;;;;;;;30.33;28.02;;;28.20;96.30;;;;;;5023469;28;20048;-76
2022/06/23 08:56:44;;;;;;;31.08;29.17;;;28.20;96.20;;;;;;5025454;28;20060;-77
2022/06/23 08:59:25;;;;;;;30.38;28.38;;;28.00;96.10;;;;;;5015855;28;20049;-76
2022/06/23 09:02:11;;;;;;;30.50;28.42;;;27.70;96.10;;;;;;5025153;28;20090;-76
2022/06/23 09:04:43;;;;;;;29.40;27.52;;;27.60;96.40;;;;;;5048038;28;20053;-76
2022/06/23 09:07:15;;;;;;;30.23;28.27;;;27.80;95.80;;;;;;5047121;28;20044;-77
2022/06/23 09:09:49;;;;;;;28.27;26.52;;;27.70;95.80;;;;;;5028552;28;20045;-76
2022/06/23 09:12:30;;;;;;;28.70;26.93;;;27.80;95.60;;;;;;5012731;28;20060;-77
2022/06/23 09:15:38;;;;;;;29.75;27.63;;;27.90;95.30;;;;;;5031003;28;20314;-77
2022/06/23 09:18:15;;;;;;;31.00;28.90;;;27.90;95.90;;;;;;5029715;28;20110;-79
2022/06/23 09:21:11;;;;;;;30.88;28.92;;;27.80;95.70;;;;;;5026892;28;20067;-76
2022/06/23 09:24:15;;;;;;;29.90;28.05;;;27.70;95.60;;;;;;5044273;28;20064;-76
2022/06/23 09:26:59;;;;;;;31.10;29.30;;;27.80;95.70;;;;;;5028876;28;20064;-76
2022/06/23 09:29:55;;;;;;;30.00;28.10;;;28.10;95.50;;;;;;5045330;28;20048;-77
2022/06/23 09:32:54;;;;;;;30.48;28.60;;;28.40;95.80;;;;;;5044176;28;20045;-77
2022/06/23 09:35:33;;;;;;;29.00;27.20;;;29.00;93.90;;;;;;5046684;28;20130;-77
2022/06/23 09:38:27;;;;;;;30.45;28.45;;;29.40;94.40;;;;;;5047649;28;20060;-76
2022/06/23 09:41:20;;;;;;;30.45;28.67;;;28.70;95.00;;;;;;5028150;28;20052;-76
2022/06/23 09:44:11;;;;;;;31.63;29.75;;;28.30;95.00;;;;;;5045463;28;20049;-76
2022/06/23 09:47:04;;;;;;;30.83;28.63;;;28.30;95.80;;;;;;5012925;28;20187;-76
2022/06/23 09:50:07;;;;;;;30.65;28.73;;;28.50;95.30;;;;;;5009770;28;20077;-75
2022/06/23 09:52:40;;;;;;;29.83;28.02;;;28.20;94.70;;;;;;5014987;28;20041;-75
2022/06/23 09:55:13;;;;;;;31.48;29.67;;;28.00;94.00;;;;;;5027850;28;20106;-77
2022/06/23 09:57:58;;;;;;;30.75;28.80;;;28.00;94.30;;;;;;5008912;28;20097;-77
2022/06/23 10:00:37;;;;;;;30.20;28.40;;;28.20;94.00;;;;;;5018872;28;20049;-76
2022/06/23 10:03:20;;;;;;;30.83;28.92;;;28.00;93.90;;;;;;5028562;28;20534;-76
2022/06/23 10:06:15;;;;;;;30.65;28.85;;;28.20;94.50;;;;;;5028538;28;20434;-77
2022/06/23 10:09:16;;;;;;;30.85;28.88;;;28.20;94.20;;;;;;5028358;28;20315;-76
2022/06/23 10:12:07;;;;;;;31.75;29.92;;;28.40;93.70;;;;;;5026842;28;20041;-76
2022/06/23 10:15:01;;;;;;;32.47;30.02;;;28.40;94.60;;;;;;5026063;28;20576;-76
2022/06/23 10:18:00;;;;;;;31.67;29.65;;;27.70;93.40;;;;;;5007751;28;20053;-76
2022/06/23 10:20:40;;;;;;;32.15;30.25;;;27.40;94.10;;;;;;5007622;28;20045;-75
2022/06/23 10:23:22;;;;;;;31.83;29.83;;;27.70;94.20;;;;;;5045174;28;20052;-76
2022/06/23 10:26:17;;;;;;;32.58;30.63;;;27.90;93.40;;;;;;5040912;28;20128;-75
2022/06/23 10:28:59;;;;;;;32.15;30.17;;;28.00;92.20;;;;;;5011217;28;20601;-76
2022/06/23 10:31:58;;;;;;;32.70;30.60;;;28.20;91.50;;;;;;5044101;28;20048;-77
2022/06/23 10:34:48;;;;;;;31.75;29.77;;;28.20;92.00;;;;;;5036155;28;20080;-76
2022/06/23 10:37:27;;;;;;;32.17;30.27;;;28.60;91.20;;;;;;5027968;28;20045;-76
2022/06/23 10:40:06;;;;;;;31.05;29.13;;;28.70;91.60;;;;;;5037123;28;20133;-76
2022/06/23 10:43:16;;;;;;;31.63;29.83;;;28.60;91.10;;;;;;5029269;28;20051;-76
2022/06/23 10:45:56;;;;;;;31.15;29.27;;;28.40;90.70;;;;;;5035569;28;20049;-76
2022/06/23 10:48:35;;;;;;;32.72;30.65;;;28.00;91.30;;;;;;5027583;28;20103;-77
2022/06/23 10:51:16;;;;;;;32.72;30.63;;;27.70;90.90;;;;;;5010681;28;20487;-76
2022/06/23 10:53:53;;;;;;;33.22;30.83;;;28.20;91.60;;;;;;5044433;28;20243;-77
2022/06/23 10:56:39;;;;;;;33.35;31.23;;;28.90;90.50;;;;;;5024666;28;20048;-80
2022/06/23 10:59:40;;;;;;;32.95;30.95;;;28.90;90.00;;;;;;5042982;28;20057;-79
2022/06/23 11:02:46;;;;;;;33.05;31.15;;;28.80;86.80;;;;;;5012467;28;20056;-77
2022/06/23 11:05:33;;;;;;;32.10;30.00;;;28.70;89.80;;;;;;4984267;28;20458;-78
2022/06/23 11:08:10;;;;;;;31.10;29.10;;;28.50;89.40;;;;;;5024487;28;20095;-76
2022/06/23 11:11:01;;;;;;;31.30;29.38;;;28.60;90.00;;;;;;5007072;28;20045;-78
2022/06/23 11:13:52;;;;;;;32.08;30.25;;;28.80;88.60;;;;;;5016440;28;20640;-78
2022/06/23 11:16:47;;;;;;;31.85;29.85;;;28.90;87.70;;;;;;5028405;28;20084;-78
2022/06/23 11:19:34;;;;;;;31.60;29.60;;;29.00;89.30;;;;;;4990093;28;20061;-79
2022/06/23 11:22:20;;;;;;;34.83;32.78;;;29.70;90.00;;;;;;5009076;28;20160;-79
2022/06/23 11:25:18;;;;;;;38.65;36.33;;;29.40;87.20;;;;;;5041886;28;20502;-77
2022/06/23 11:28:28;;;;;;;38.65;36.00;;;29.30;86.40;;;;;;5044806;28;20143;-78
2022/06/23 11:31:17;;;;;;;31.27;29.40;;;29.50;86.20;;;;;;4996917;28;20049;-78
2022/06/23 11:34:18;;;;;;;30.40;28.55;;;29.60;89.00;;;;;;5007464;28;20049;-79
2022/06/23 11:37:25;;;;;;;31.73;29.83;;;29.30;84.80;;;;;;5006368;28;20056;-79
2022/06/23 11:40:10;;;;;;;32.13;30.13;;;29.20;86.60;;;;;;5028767;28;20139;-77
2022/06/23 11:42:45;;;;;;;30.90;28.90;;;29.60;85.40;;;;;;5042039;28;20072;-79
2022/06/23 11:45:20;;;;;;;31.45;29.23;;;29.90;84.80;;;;;;5010141;28;20475;-80
2022/06/23 11:48:26;;;;;;;33.80;31.35;;;29.70;85.10;;;;;;5028447;28;20106;-80
2022/06/23 11:51:02;;;;;;;33.03;30.92;;;29.50;87.30;;;;;;5013450;28;20037;-79
2022/06/23 11:53:47;;;;;;;31.65;29.83;;;29.60;86.20;;;;;;5025341;28;20478;-79
2022/06/23 11:56:31;;;;;;;32.55;30.55;;;29.70;87.40;;;;;;5026484;28;20053;-79
2022/06/23 11:59:41;;;;;;;32.13;30.33;;;30.20;89.10;;;;;;5045036;28;20122;-79
2022/06/23 12:03:03;;;;;;;32.78;30.88;;;29.70;83.60;;;;;;5030923;28;20056;-77
2022/06/23 12:05:38;;;;;;;32.80;30.80;;;29.20;84.60;;;;;;4990245;28;20126;-79
2022/06/23 12:08:30;;;;;;;33.33;31.23;;;29.30;86.30;;;;;;5006921;28;20119;-79
2022/06/23 12:10:57;;;;;;;31.17;29.27;;;29.70;84.00;;;;;;5006142;28;20283;-78
2022/06/23 12:13:26;;;;;;;32.83;30.70;;;29.60;83.10;;;;;;5019243;28;20041;-79
2022/06/23 12:15:55;;;;;;;32.53;30.52;;;29.70;82.20;;;;;;5016737;28;20061;-79
2022/06/23 12:18:27;;;;;;;32.13;30.33;;;29.70;81.50;;;;;;5005025;28;20504;-78
2022/06/23 12:21:03;;;;;;;32.35;30.27;;;29.80;83.50;;;;;;5004512;28;20148;-78
2022/06/23 12:23:38;;;;;;;32.13;30.10;;;30.20;83.00;;;;;;5017174;28;20041;-78
2022/06/23 12:26:09;;;;;;;32.67;30.73;;;29.30;83.30;;;;;;5023183;28;20056;-78
2022/06/23 12:28:52;;;;;;;32.47;30.58;;;29.30;83.80;;;;;;5026905;28;20049;-78
2022/06/23 12:31:40;;;;;;;33.10;31.30;;;29.30;86.00;;;;;;5026390;28;20068;-78
2022/06/23 12:34:36;;;;;;;32.45;30.55;;;29.50;84.20;;;;;;5043237;28;20059;-79
2022/06/23 12:37:17;;;;;;;33.67;31.67;;;29.30;83.10;;;;;;4993874;28;20046;-76
2022/06/23 12:40:10;;;;;;;32.95;30.50;;;29.40;85.30;;;;;;5041150;28;20041;-77
2022/06/23 12:42:42;;;;;;;31.70;29.80;;;29.40;82.80;;;;;;5037693;28;20087;-76
2022/06/23 12:45:38;;;;;;;30.52;28.55;;;29.60;85.70;;;;;;5041481;28;20053;-76
2022/06/23 12:48:32;;;;;;;31.90;29.83;;;30.10;84.10;;;;;;5024298;28;20042;-76
2022/06/23 12:51:20;;;;;;;32.85;30.63;;;30.30;83.60;;;;;;5005740;28;20080;-76
2022/06/23 12:53:54;;;;;;;32.30;30.35;;;30.20;83.60;;;;;;5022095;28;20479;-76
2022/06/23 12:57:06;;;;;;;32.70;30.80;;;29.70;82.70;;;;;;5022289;28;20056;-77
2022/06/23 12:59:42;;;;;;;32.65;30.75;;;30.10;83.10;;;;;;4956354;28;20078;-76
2022/06/23 13:02:08;;;;;;;32.63;30.73;;;30.30;79.80;;;;;;5032773;28;20041;-76
2022/06/23 13:04:35;;;;;;;33.83;31.65;;;30.00;82.90;;;;;;5025687;28;20107;-75
2022/06/23 13:07:11;;;;;;;32.88;30.77;;;29.70;84.50;;;;;;5008667;28;20075;-76
2022/06/23 13:09:47;;;;;;;32.22;30.13;;;30.00;84.50;;;;;;5009515;28;20057;-76
2022/06/23 13:12:42;;;;;;;32.63;30.73;;;30.60;84.80;;;;;;5007337;28;20053;-76
2022/06/23 13:15:34;;;;;;;33.53;31.35;;;30.80;83.80;;;;;;5025407;28;20727;-77
2022/06/23 13:18:30;;;;;;;33.22;31.23;;;30.40;82.20;;;;;;5043785;28;20495;-77
2022/06/23 13:21:00;;;;;;;32.28;30.38;;;30.40;80.40;;;;;;5025163;28;20061;-77
2022/06/23 13:23:45;;;;;;;32.72;30.80;;;31.00;81.00;;;;;;5025374;28;20048;-76
2022/06/23 13:26:23;;;;;;;33.97;32.08;;;30.50;82.00;;;;;;5005295;28;20049;-77
2022/06/23 13:29:00;;;;;;;35.20;33.03;;;29.80;81.80;;;;;;5024343;28;20107;-76
2022/06/23 13:31:52;;;;;;;33.63;31.73;;;29.30;85.10;;;;;;5040692;28;20383;-77
2022/06/23 13:34:27;;;;;;;34.05;32.05;;;29.60;82.80;;;;;;5009326;28;20041;-76
2022/06/23 13:37:03;;;;;;;33.00;31.00;;;29.40;81.80;;;;;;5024437;28;20037;-76
2022/06/23 13:40:08;;;;;;;32.72;30.73;;;29.80;83.40;;;;;;5043569;28;20239;-76
2022/06/23 13:42:41;;;;;;;33.08;31.17;;;30.40;83.10;;;;;;4977617;28;20048;-77
2022/06/23 13:45:17;;;;;;;32.53;30.63;;;30.80;80.20;;;;;;5024974;28;20130;-76